sensor_id;sensor_type;location;lat;lon;timestamp;P1;durP1;ratioP1;P2;durP2;ratioP2
2011;SDS011;1009;51.436;6.972;2023-03-22T00:00:42;10.73;;;5.80;;
2011;SDS011;1009;51.436;6.972;2023-03-22T00:03:09;12.10;;;6.30;;
2011;SDS011;1009;51.436;6.972;2023-03-22T00:05:36;10.30;;;5.73;;
2011;SDS011;1009;51.436;6.972;2023-03-22T00:08:05;9.10;;;5.90;;
2011;SDS011;1009;51.436;6.972;2023-03-22T00:10:32;14.47;;;7.03;;
2011;SDS011;1009;51.436;6.972;2023-03-22T00:13:00;11.10;;;6.67;;
2011;SDS011;1009;51.436;6.972;2023-03-22T00:15:27;10.80;;;6.03;;
2011;SDS011;1009;51.436;6.972;2023-03-22T00:17:54;10.23;;;6.70;;
2011;SDS011;1009;51.436;6.972;2023-03-22T00:20:21;11.23;;;6.27;;
2011;SDS011;1009;51.436;6.972;2023-03-22T00:22:48;8.50;;;5.37;;
2011;SDS011;1009;51.436;6.972;2023-03-22T00:25:17;11.43;;;5.93;;
2011;SDS011;1009;51.436;6.972;2023-03-22T00:27:44;9.47;;;5.60;;
2011;SDS011;1009;51.436;6.972;2023-03-22T00:30:11;9.83;;;5.97;;
2011;SDS011;1009;51.436;6.972;2023-03-22T00:32:38;10.90;;;6.33;;
2011;SDS011;1009;51.436;6.972;2023-03-22T00:35:06;9.50;;;6.70;;
2011;SDS011;1009;51.436;6.972;2023-03-22T00:37:34;10.00;;;6.27;;
2011;SDS011;1009;51.436;6.972;2023-03-22T00:40:03;9.33;;;5.67;;
2011;SDS011;1009;51.436;6.972;2023-03-22T00:42:34;8.87;;;6.33;;
2011;SDS011;1009;51.436;6.972;2023-03-22T00:45:00;14.50;;;7.20;;
2011;SDS011;1009;51.436;6.972;2023-03-22T00:47:27;12.27;;;6.70;;
2011;SDS011;1009;51.436;6.972;2023-03-22T00:49:54;12.50;;;7.73;;
2011;SDS011;1009;51.436;6.972;2023-03-22T00:52:21;13.67;;;7.30;;
2011;SDS011;1009;51.436;6.972;2023-03-22T00:54:48;14.50;;;7.53;;
2011;SDS011;1009;51.436;6.972;2023-03-22T00:57:15;13.43;;;6.93;;
2011;SDS011;1009;51.436;6.972;2023-03-22T00:59:43;9.90;;;7.27;;
2011;SDS011;1009;51.436;6.972;2023-03-22T01:02:10;11.43;;;7.33;;
2011;SDS011;1009;51.436;6.972;2023-03-22T01:04:37;10.50;;;7.53;;
2011;SDS011;1009;51.436;6.972;2023-03-22T01:07:10;13.00;;;7.00;;
2011;SDS011;1009;51.436;6.972;2023-03-22T01:09:42;11.77;;;7.00;;
2011;SDS011;1009;51.436;6.972;2023-03-22T01:12:08;12.57;;;7.40;;
2011;SDS011;1009;51.436;6.972;2023-03-22T01:14:39;9.93;;;7.13;;
2011;SDS011;1009;51.436;6.972;2023-03-22T01:17:07;11.30;;;7.63;;
2011;SDS011;1009;51.436;6.972;2023-03-22T01:19:35;11.17;;;7.30;;
2011;SDS011;1009;51.436;6.972;2023-03-22T01:22:03;10.73;;;7.47;;
2011;SDS011;1009;51.436;6.972;2023-03-22T01:24:30;16.03;;;7.90;;
2011;SDS011;1009;51.436;6.972;2023-03-22T01:27:06;12.17;;;7.50;;
2011;SDS011;1009;51.436;6.972;2023-03-22T01:29:33;14.03;;;8.13;;
2011;SDS011;1009;51.436;6.972;2023-03-22T01:32:00;12.87;;;7.90;;
2011;SDS011;1009;51.436;6.972;2023-03-22T01:34:29;15.77;;;7.80;;
2011;SDS011;1009;51.436;6.972;2023-03-22T01:36:56;14.63;;;8.20;;
2011;SDS011;1009;51.436;6.972;2023-03-22T01:39:22;12.30;;;7.90;;
2011;SDS011;1009;51.436;6.972;2023-03-22T01:41:50;13.00;;;8.07;;
2011;SDS011;1009;51.436;6.972;2023-03-22T01:44:17;12.30;;;7.60;;
2011;SDS011;1009;51.436;6.972;2023-03-22T01:46:45;15.10;;;8.13;;
2011;SDS011;1009;51.436;6.972;2023-03-22T01:49:14;14.00;;;7.97;;
2011;SDS011;1009;51.436;6.972;2023-03-22T01:51:45;13.80;;;8.13;;
2011;SDS011;1009;51.436;6.972;2023-03-22T01:54:16;13.37;;;8.20;;
2011;SDS011;1009;51.436;6.972;2023-03-22T01:56:47;14.90;;;8.13;;
2011;SDS011;1009;51.436;6.972;2023-03-22T01:59:15;13.47;;;8.63;;
2011;SDS011;1009;51.436;6.972;2023-03-22T02:01:42;12.83;;;9.00;;
2011;SDS011;1009;51.436;6.972;2023-03-22T02:04:11;14.17;;;8.70;;
2011;SDS011;1009;51.436;6.972;2023-03-22T02:06:48;12.57;;;9.30;;
2011;SDS011;1009;51.436;6.972;2023-03-22T02:09:20;14.10;;;8.93;;
2011;SDS011;1009;51.436;6.972;2023-03-22T02:11:48;13.83;;;9.20;;
2011;SDS011;1009;51.436;6.972;2023-03-22T02:14:26;13.47;;;9.40;;
2011;SDS011;1009;51.436;6.972;2023-03-22T02:17:07;17.90;;;10.10;;
2011;SDS011;1009;51.436;6.972;2023-03-22T02:22:52;14.93;;;9.37;;
2011;SDS011;1009;51.436;6.972;2023-03-22T02:25:32;13.83;;;9.37;;
2011;SDS011;1009;51.436;6.972;2023-03-22T02:28:22;15.87;;;10.00;;
2011;SDS011;1009;51.436;6.972;2023-03-22T02:30:58;16.43;;;9.17;;
2011;SDS011;1009;51.436;6.972;2023-03-22T02:39:49;14.80;;;10.20;;
2011;SDS011;1009;51.436;6.972;2023-03-22T02:42:24;13.77;;;9.23;;
2011;SDS011;1009;51.436;6.972;2023-03-22T02:45:00;15.17;;;11.07;;
2011;SDS011;1009;51.436;6.972;2023-03-22T02:47:35;13.80;;;10.00;;
2011;SDS011;1009;51.436;6.972;2023-03-22T02:50:09;16.77;;;10.60;;
2011;SDS011;1009;51.436;6.972;2023-03-22T02:52:41;16.30;;;10.40;;
2011;SDS011;1009;51.436;6.972;2023-03-22T02:55:15;14.90;;;9.83;;
2011;SDS011;1009;51.436;6.972;2023-03-22T02:57:49;14.77;;;10.17;;
2011;SDS011;1009;51.436;6.972;2023-03-22T03:00:22;17.17;;;10.20;;
2011;SDS011;1009;51.436;6.972;2023-03-22T03:02:51;14.50;;;11.77;;
2011;SDS011;1009;51.436;6.972;2023-03-22T03:05:21;17.90;;;11.40;;
2011;SDS011;1009;51.436;6.972;2023-03-22T03:07:51;17.50;;;11.83;;
2011;SDS011;1009;51.436;6.972;2023-03-22T03:10:23;14.70;;;10.80;;
2011;SDS011;1009;51.436;6.972;2023-03-22T03:12:51;15.37;;;12.00;;
2011;SDS011;1009;51.436;6.972;2023-03-22T03:15:18;16.20;;;11.17;;
2011;SDS011;1009;51.436;6.972;2023-03-22T03:18:02;18.53;;;12.67;;
2011;SDS011;1009;51.436;6.972;2023-03-22T03:20:42;15.53;;;13.13;;
2011;SDS011;1009;51.436;6.972;2023-03-22T03:23:19;20.80;;;12.63;;
2011;SDS011;1009;51.436;6.972;2023-03-22T03:25:57;18.00;;;13.77;;
2011;SDS011;1009;51.436;6.972;2023-03-22T03:28:32;16.43;;;12.80;;
2011;SDS011;1009;51.436;6.972;2023-03-22T03:31:05;18.00;;;14.10;;
2011;SDS011;1009;51.436;6.972;2023-03-22T03:33:37;16.70;;;12.93;;
2011;SDS011;1009;51.436;6.972;2023-03-22T03:36:09;19.23;;;13.60;;
2011;SDS011;1009;51.436;6.972;2023-03-22T03:38:39;24.63;;;13.03;;
2011;SDS011;1009;51.436;6.972;2023-03-22T03:41:11;16.67;;;14.00;;
2011;SDS011;1009;51.436;6.972;2023-03-22T03:43:40;19.70;;;12.80;;
2011;SDS011;1009;51.436;6.972;2023-03-22T03:46:08;17.07;;;11.90;;
2011;SDS011;1009;51.436;6.972;2023-03-22T03:48:36;18.63;;;12.10;;
2011;SDS011;1009;51.436;6.972;2023-03-22T03:51:04;16.10;;;12.67;;
2011;SDS011;1009;51.436;6.972;2023-03-22T03:53:34;17.67;;;12.73;;
2011;SDS011;1009;51.436;6.972;2023-03-22T03:56:01;21.70;;;13.27;;
2011;SDS011;1009;51.436;6.972;2023-03-22T03:58:29;18.80;;;12.93;;
2011;SDS011;1009;51.436;6.972;2023-03-22T04:00:55;16.30;;;11.73;;
2011;SDS011;1009;51.436;6.972;2023-03-22T04:03:22;17.23;;;11.63;;
2011;SDS011;1009;51.436;6.972;2023-03-22T04:05:49;18.90;;;12.13;;
2011;SDS011;1009;51.436;6.972;2023-03-22T04:08:16;17.57;;;11.90;;
2011;SDS011;1009;51.436;6.972;2023-03-22T04:10:42;20.97;;;13.13;;
2011;SDS011;1009;51.436;6.972;2023-03-22T04:13:15;17.77;;;11.63;;
2011;SDS011;1009;51.436;6.972;2023-03-22T04:15:43;14.60;;;10.87;;
2011;SDS011;1009;51.436;6.972;2023-03-22T04:18:09;17.67;;;11.13;;
2011;SDS011;1009;51.436;6.972;2023-03-22T04:20:36;18.70;;;10.83;;
2011;SDS011;1009;51.436;6.972;2023-03-22T04:23:05;16.00;;;11.17;;
2011;SDS011;1009;51.436;6.972;2023-03-22T04:25:41;13.47;;;10.87;;
2011;SDS011;1009;51.436;6.972;2023-03-22T04:28:13;14.80;;;10.60;;
2011;SDS011;1009;51.436;6.972;2023-03-22T04:30:40;14.30;;;10.67;;
2011;SDS011;1009;51.436;6.972;2023-03-22T04:33:09;15.43;;;9.73;;
2011;SDS011;1009;51.436;6.972;2023-03-22T04:35:37;11.50;;;9.00;;
2011;SDS011;1009;51.436;6.972;2023-03-22T04:38:03;14.20;;;10.97;;
2011;SDS011;1009;51.436;6.972;2023-03-22T04:40:31;14.90;;;10.13;;
2011;SDS011;1009;51.436;6.972;2023-03-22T04:43:02;16.27;;;10.03;;
2011;SDS011;1009;51.436;6.972;2023-03-22T04:45:29;17.20;;;9.30;;
2011;SDS011;1009;51.436;6.972;2023-03-22T04:48:00;15.63;;;11.13;;
2011;SDS011;1009;51.436;6.972;2023-03-22T04:50:27;15.23;;;9.40;;
2011;SDS011;1009;51.436;6.972;2023-03-22T04:52:54;14.00;;;9.83;;
2011;SDS011;1009;51.436;6.972;2023-03-22T04:55:22;13.00;;;10.17;;
2011;SDS011;1009;51.436;6.972;2023-03-22T04:57:49;15.40;;;8.83;;
2011;SDS011;1009;51.436;6.972;2023-03-22T05:00:18;11.90;;;9.00;;
2011;SDS011;1009;51.436;6.972;2023-03-22T05:02:45;12.33;;;9.00;;
2011;SDS011;1009;51.436;6.972;2023-03-22T05:05:14;17.07;;;9.43;;
2011;SDS011;1009;51.436;6.972;2023-03-22T05:07:41;11.43;;;8.00;;
2011;SDS011;1009;51.436;6.972;2023-03-22T05:10:09;13.67;;;9.03;;
2011;SDS011;1009;51.436;6.972;2023-03-22T05:12:36;13.00;;;9.40;;
2011;SDS011;1009;51.436;6.972;2023-03-22T05:15:02;14.70;;;8.67;;
2011;SDS011;1009;51.436;6.972;2023-03-22T05:17:30;11.90;;;8.67;;
2011;SDS011;1009;51.436;6.972;2023-03-22T05:19:57;12.63;;;9.63;;
2011;SDS011;1009;51.436;6.972;2023-03-22T05:22:32;17.13;;;8.83;;
2011;SDS011;1009;51.436;6.972;2023-03-22T05:25:02;14.57;;;8.70;;
2011;SDS011;1009;51.436;6.972;2023-03-22T05:27:30;14.20;;;8.20;;
2011;SDS011;1009;51.436;6.972;2023-03-22T05:29:58;16.27;;;8.73;;
2011;SDS011;1009;51.436;6.972;2023-03-22T05:32:25;10.83;;;7.63;;
2011;SDS011;1009;51.436;6.972;2023-03-22T05:34:53;12.70;;;8.00;;
2011;SDS011;1009;51.436;6.972;2023-03-22T05:37:20;12.57;;;9.00;;
2011;SDS011;1009;51.436;6.972;2023-03-22T05:39:48;11.90;;;8.23;;
2011;SDS011;1009;51.436;6.972;2023-03-22T05:42:15;16.10;;;9.37;;
2011;SDS011;1009;51.436;6.972;2023-03-22T05:44:41;17.03;;;7.87;;
2011;SDS011;1009;51.436;6.972;2023-03-22T05:47:08;11.47;;;7.57;;
2011;SDS011;1009;51.436;6.972;2023-03-22T05:49:35;12.63;;;8.27;;
2011;SDS011;1009;51.436;6.972;2023-03-22T05:52:02;12.43;;;7.97;;
2011;SDS011;1009;51.436;6.972;2023-03-22T05:54:30;11.00;;;7.60;;
2011;SDS011;1009;51.436;6.972;2023-03-22T05:56:58;11.50;;;8.47;;
2011;SDS011;1009;51.436;6.972;2023-03-22T05:59:25;13.57;;;7.73;;
2011;SDS011;1009;51.436;6.972;2023-03-22T06:01:52;11.53;;;7.33;;
2011;SDS011;1009;51.436;6.972;2023-03-22T06:04:21;15.10;;;8.03;;
2011;SDS011;1009;51.436;6.972;2023-03-22T06:06:48;12.07;;;6.90;;
2011;SDS011;1009;51.436;6.972;2023-03-22T06:09:17;9.13;;;7.13;;
2011;SDS011;1009;51.436;6.972;2023-03-22T06:11:44;11.23;;;8.00;;
2011;SDS011;1009;51.436;6.972;2023-03-22T06:14:12;17.70;;;8.00;;
2011;SDS011;1009;51.436;6.972;2023-03-22T06:16:39;9.67;;;6.80;;
2011;SDS011;1009;51.436;6.972;2023-03-22T06:19:06;9.83;;;7.20;;
2011;SDS011;1009;51.436;6.972;2023-03-22T06:21:33;15.87;;;7.60;;
2011;SDS011;1009;51.436;6.972;2023-03-22T06:23:59;14.60;;;7.83;;
2011;SDS011;1009;51.436;6.972;2023-03-22T06:26:26;10.20;;;6.93;;
2011;SDS011;1009;51.436;6.972;2023-03-22T06:28:56;13.90;;;6.50;;
2011;SDS011;1009;51.436;6.972;2023-03-22T06:31:24;12.33;;;6.90;;
2011;SDS011;1009;51.436;6.972;2023-03-22T06:33:53;12.00;;;6.77;;
2011;SDS011;1009;51.436;6.972;2023-03-22T06:36:20;10.30;;;6.53;;
2011;SDS011;1009;51.436;6.972;2023-03-22T06:38:53;10.70;;;5.97;;
2011;SDS011;1009;51.436;6.972;2023-03-22T06:41:22;12.70;;;6.87;;
2011;SDS011;1009;51.436;6.972;2023-03-22T06:43:50;11.40;;;6.07;;
2011;SDS011;1009;51.436;6.972;2023-03-22T06:46:17;11.03;;;6.33;;
2011;SDS011;1009;51.436;6.972;2023-03-22T06:48:45;12.60;;;5.97;;
2011;SDS011;1009;51.436;6.972;2023-03-22T06:51:11;10.87;;;6.63;;
2011;SDS011;1009;51.436;6.972;2023-03-22T06:53:38;9.47;;;6.40;;
2011;SDS011;1009;51.436;6.972;2023-03-22T06:56:05;11.63;;;7.60;;
2011;SDS011;1009;51.436;6.972;2023-03-22T06:58:32;11.00;;;7.03;;
2011;SDS011;1009;51.436;6.972;2023-03-22T07:00:59;11.83;;;7.17;;
2011;SDS011;1009;51.436;6.972;2023-03-22T07:03:26;11.70;;;7.60;;
2011;SDS011;1009;51.436;6.972;2023-03-22T07:06:00;16.50;;;7.00;;
2011;SDS011;1009;51.436;6.972;2023-03-22T07:08:27;15.03;;;7.17;;
2011;SDS011;1009;51.436;6.972;2023-03-22T07:10:53;13.20;;;6.43;;
2011;SDS011;1009;51.436;6.972;2023-03-22T07:13:20;9.20;;;6.10;;
2011;SDS011;1009;51.436;6.972;2023-03-22T07:15:47;15.50;;;6.23;;
2011;SDS011;1009;51.436;6.972;2023-03-22T07:18:14;12.07;;;6.30;;
2011;SDS011;1009;51.436;6.972;2023-03-22T07:20:40;11.20;;;5.80;;
2011;SDS011;1009;51.436;6.972;2023-03-22T07:23:08;16.13;;;6.07;;
2011;SDS011;1009;51.436;6.972;2023-03-22T07:25:35;13.40;;;6.07;;
2011;SDS011;1009;51.436;6.972;2023-03-22T07:28:02;8.63;;;5.20;;
2011;SDS011;1009;51.436;6.972;2023-03-22T07:30:30;12.97;;;6.13;;
2011;SDS011;1009;51.436;6.972;2023-03-22T07:32:59;10.70;;;5.40;;
2011;SDS011;1009;51.436;6.972;2023-03-22T07:35:26;14.20;;;5.50;;
2011;SDS011;1009;51.436;6.972;2023-03-22T07:37:53;13.80;;;5.80;;
2011;SDS011;1009;51.436;6.972;2023-03-22T07:40:21;10.73;;;5.27;;
2011;SDS011;1009;51.436;6.972;2023-03-22T07:42:48;10.50;;;5.20;;
2011;SDS011;1009;51.436;6.972;2023-03-22T07:45:15;14.00;;;5.50;;
2011;SDS011;1009;51.436;6.972;2023-03-22T07:47:42;11.20;;;5.07;;
2011;SDS011;1009;51.436;6.972;2023-03-22T07:50:09;7.33;;;4.03;;
2011;SDS011;1009;51.436;6.972;2023-03-22T07:52:37;9.37;;;3.77;;
2011;SDS011;1009;51.436;6.972;2023-03-22T07:55:04;7.07;;;4.13;;
2011;SDS011;1009;51.436;6.972;2023-03-22T07:57:33;6.10;;;2.67;;
2011;SDS011;1009;51.436;6.972;2023-03-22T08:00:00;10.37;;;3.17;;
2011;SDS011;1009;51.436;6.972;2023-03-22T08:02:29;6.53;;;4.03;;
2011;SDS011;1009;51.436;6.972;2023-03-22T08:04:56;11.50;;;3.27;;
2011;SDS011;1009;51.436;6.972;2023-03-22T08:07:23;9.07;;;3.60;;
2011;SDS011;1009;51.436;6.972;2023-03-22T08:09:50;7.47;;;3.40;;
2011;SDS011;1009;51.436;6.972;2023-03-22T08:12:17;10.70;;;2.90;;
2011;SDS011;1009;51.436;6.972;2023-03-22T08:14:45;10.43;;;3.23;;
2011;SDS011;1009;51.436;6.972;2023-03-22T08:17:15;7.80;;;2.73;;
2011;SDS011;1009;51.436;6.972;2023-03-22T08:19:42;6.27;;;2.47;;
2011;SDS011;1009;51.436;6.972;2023-03-22T08:22:09;7.40;;;2.83;;
2011;SDS011;1009;51.436;6.972;2023-03-22T08:24:36;9.10;;;2.87;;
2011;SDS011;1009;51.436;6.972;2023-03-22T08:27:03;6.93;;;3.17;;
2011;SDS011;1009;51.436;6.972;2023-03-22T08:29:30;11.13;;;2.10;;
2011;SDS011;1009;51.436;6.972;2023-03-22T08:31:58;9.30;;;2.10;;
2011;SDS011;1009;51.436;6.972;2023-03-22T08:34:26;13.17;;;2.17;;
2011;SDS011;1009;51.436;6.972;2023-03-22T08:36:53;5.87;;;1.57;;
2011;SDS011;1009;51.436;6.972;2023-03-22T08:39:19;4.37;;;1.63;;
2011;SDS011;1009;51.436;6.972;2023-03-22T08:41:46;4.23;;;2.03;;
2011;SDS011;1009;51.436;6.972;2023-03-22T08:44:13;4.20;;;1.60;;
2011;SDS011;1009;51.436;6.972;2023-03-22T08:46:40;6.77;;;2.10;;
2011;SDS011;1009;51.436;6.972;2023-03-22T08:49:08;5.10;;;1.60;;
2011;SDS011;1009;51.436;6.972;2023-03-22T08:51:35;3.73;;;1.53;;
2011;SDS011;1009;51.436;6.972;2023-03-22T08:54:01;13.73;;;2.50;;
2011;SDS011;1009;51.436;6.972;2023-03-22T08:56:28;5.57;;;1.73;;
2011;SDS011;1009;51.436;6.972;2023-03-22T08:58:56;7.70;;;1.70;;
2011;SDS011;1009;51.436;6.972;2023-03-22T09:01:23;8.30;;;2.40;;
2011;SDS011;1009;51.436;6.972;2023-03-22T09:03:50;4.23;;;1.97;;
2011;SDS011;1009;51.436;6.972;2023-03-22T09:06:18;6.30;;;2.27;;
2011;SDS011;1009;51.436;6.972;2023-03-22T09:08:45;4.80;;;2.03;;
2011;SDS011;1009;51.436;6.972;2023-03-22T09:11:16;5.13;;;2.00;;
2011;SDS011;1009;51.436;6.972;2023-03-22T09:13:43;7.20;;;2.20;;
2011;SDS011;1009;51.436;6.972;2023-03-22T09:16:10;8.40;;;2.07;;
2011;SDS011;1009;51.436;6.972;2023-03-22T09:18:37;6.17;;;2.10;;
2011;SDS011;1009;51.436;6.972;2023-03-22T09:21:05;8.97;;;1.97;;
2011;SDS011;1009;51.436;6.972;2023-03-22T09:23:34;7.97;;;2.43;;
2011;SDS011;1009;51.436;6.972;2023-03-22T09:26:02;8.40;;;1.93;;
2011;SDS011;1009;51.436;6.972;2023-03-22T09:28:31;3.80;;;1.80;;
2011;SDS011;1009;51.436;6.972;2023-03-22T09:30:59;7.53;;;1.70;;
2011;SDS011;1009;51.436;6.972;2023-03-22T09:33:26;5.00;;;1.70;;
2011;SDS011;1009;51.436;6.972;2023-03-22T09:35:53;4.63;;;1.43;;
2011;SDS011;1009;51.436;6.972;2023-03-22T09:38:21;7.13;;;1.80;;
2011;SDS011;1009;51.436;6.972;2023-03-22T09:40:51;6.50;;;1.90;;
2011;SDS011;1009;51.436;6.972;2023-03-22T09:43:24;6.10;;;1.80;;
2011;SDS011;1009;51.436;6.972;2023-03-22T09:45:53;8.90;;;2.30;;
2011;SDS011;1009;51.436;6.972;2023-03-22T09:48:21;9.83;;;2.43;;
2011;SDS011;1009;51.436;6.972;2023-03-22T09:50:52;5.83;;;1.77;;
2011;SDS011;1009;51.436;6.972;2023-03-22T09:53:21;5.80;;;2.07;;
2011;SDS011;1009;51.436;6.972;2023-03-22T09:55:53;8.20;;;2.20;;
2011;SDS011;1009;51.436;6.972;2023-03-22T09:58:26;8.70;;;2.20;;
2011;SDS011;1009;51.436;6.972;2023-03-22T10:00:56;7.67;;;2.20;;
2011;SDS011;1009;51.436;6.972;2023-03-22T10:03:33;6.07;;;1.73;;
2011;SDS011;1009;51.436;6.972;2023-03-22T10:06:19;5.70;;;1.67;;
2011;SDS011;1009;51.436;6.972;2023-03-22T10:08:50;6.80;;;1.80;;
2011;SDS011;1009;51.436;6.972;2023-03-22T10:11:31;9.03;;;1.80;;
2011;SDS011;1009;51.436;6.972;2023-03-22T10:14:12;4.63;;;1.80;;
2011;SDS011;1009;51.436;6.972;2023-03-22T10:16:49;9.87;;;2.40;;
2011;SDS011;1009;51.436;6.972;2023-03-22T10:19:18;6.47;;;2.23;;
2011;SDS011;1009;51.436;6.972;2023-03-22T10:21:49;10.30;;;2.70;;
2011;SDS011;1009;51.436;6.972;2023-03-22T10:24:19;5.03;;;1.90;;
2011;SDS011;1009;51.436;6.972;2023-03-22T10:26:51;8.00;;;2.60;;
2011;SDS011;1009;51.436;6.972;2023-03-22T10:29:21;7.03;;;2.00;;
2011;SDS011;1009;51.436;6.972;2023-03-22T10:31:51;5.40;;;2.47;;
2011;SDS011;1009;51.436;6.972;2023-03-22T10:34:21;5.70;;;2.40;;
2011;SDS011;1009;51.436;6.972;2023-03-22T10:36:52;6.00;;;1.80;;
2011;SDS011;1009;51.436;6.972;2023-03-22T10:39:24;7.80;;;2.57;;
2011;SDS011;1009;51.436;6.972;2023-03-22T10:41:55;7.37;;;1.77;;
2011;SDS011;1009;51.436;6.972;2023-03-22T10:44:25;7.67;;;2.00;;
2011;SDS011;1009;51.436;6.972;2023-03-22T10:46:55;6.27;;;2.07;;
2011;SDS011;1009;51.436;6.972;2023-03-22T10:49:38;10.87;;;2.07;;
2011;SDS011;1009;51.436;6.972;2023-03-22T10:52:15;6.47;;;2.63;;
2011;SDS011;1009;51.436;6.972;2023-03-22T10:54:48;7.20;;;2.27;;
2011;SDS011;1009;51.436;6.972;2023-03-22T10:57:15;4.70;;;1.70;;
2011;SDS011;1009;51.436;6.972;2023-03-22T10:59:46;6.27;;;2.17;;
2011;SDS011;1009;51.436;6.972;2023-03-22T11:02:19;7.07;;;1.83;;
2011;SDS011;1009;51.436;6.972;2023-03-22T11:04:49;6.20;;;2.07;;
2011;SDS011;1009;51.436;6.972;2023-03-22T11:07:29;8.73;;;2.37;;
2011;SDS011;1009;51.436;6.972;2023-03-22T11:10:00;6.53;;;1.80;;
2011;SDS011;1009;51.436;6.972;2023-03-22T11:12:40;7.00;;;1.73;;
2011;SDS011;1009;51.436;6.972;2023-03-22T11:15:18;8.37;;;1.97;;
2011;SDS011;1009;51.436;6.972;2023-03-22T11:17:50;4.63;;;1.40;;
2011;SDS011;1009;51.436;6.972;2023-03-22T11:20:19;9.20;;;1.70;;
2011;SDS011;1009;51.436;6.972;2023-03-22T11:22:47;12.67;;;1.90;;
2011;SDS011;1009;51.436;6.972;2023-03-22T11:25:14;7.63;;;1.97;;
2011;SDS011;1009;51.436;6.972;2023-03-22T11:27:49;2.90;;;1.67;;
2011;SDS011;1009;51.436;6.972;2023-03-22T11:30:19;7.33;;;1.70;;
2011;SDS011;1009;51.436;6.972;2023-03-22T11:32:47;6.03;;;2.27;;
2011;SDS011;1009;51.436;6.972;2023-03-22T11:35:16;5.13;;;2.13;;
2011;SDS011;1009;51.436;6.972;2023-03-22T11:37:47;4.10;;;1.57;;
2011;SDS011;1009;51.436;6.972;2023-03-22T11:40:16;4.83;;;1.57;;
2011;SDS011;1009;51.436;6.972;2023-03-22T11:42:43;6.60;;;1.87;;
2011;SDS011;1009;51.436;6.972;2023-03-22T11:45:13;6.33;;;1.73;;
2011;SDS011;1009;51.436;6.972;2023-03-22T11:47:41;8.80;;;2.17;;
2011;SDS011;1009;51.436;6.972;2023-03-22T11:50:14;9.30;;;1.90;;
2011;SDS011;1009;51.436;6.972;2023-03-22T11:52:52;8.33;;;2.23;;
2011;SDS011;1009;51.436;6.972;2023-03-22T11:55:18;5.40;;;2.00;;
2011;SDS011;1009;51.436;6.972;2023-03-22T11:57:46;5.50;;;1.87;;
2011;SDS011;1009;51.436;6.972;2023-03-22T12:00:15;6.07;;;1.57;;
2011;SDS011;1009;51.436;6.972;2023-03-22T12:02:47;7.90;;;1.83;;
2011;SDS011;1009;51.436;6.972;2023-03-22T12:05:16;5.33;;;1.93;;
2011;SDS011;1009;51.436;6.972;2023-03-22T12:07:46;7.90;;;2.50;;
2011;SDS011;1009;51.436;6.972;2023-03-22T12:10:20;6.37;;;1.87;;
2011;SDS011;1009;51.436;6.972;2023-03-22T12:12:52;6.70;;;1.50;;
2011;SDS011;1009;51.436;6.972;2023-03-22T12:15:23;3.97;;;1.83;;
2011;SDS011;1009;51.436;6.972;2023-03-22T12:17:55;4.00;;;1.40;;
2011;SDS011;1009;51.436;6.972;2023-03-22T12:20:29;6.83;;;1.70;;
2011;SDS011;1009;51.436;6.972;2023-03-22T12:23:08;8.23;;;2.03;;
2011;SDS011;1009;51.436;6.972;2023-03-22T12:25:41;5.17;;;1.67;;
2011;SDS011;1009;51.436;6.972;2023-03-22T12:28:12;6.17;;;1.87;;
2011;SDS011;1009;51.436;6.972;2023-03-22T12:30:43;3.37;;;1.50;;
2011;SDS011;1009;51.436;6.972;2023-03-22T12:33:14;8.33;;;1.60;;
2011;SDS011;1009;51.436;6.972;2023-03-22T12:35:44;4.77;;;1.40;;
2011;SDS011;1009;51.436;6.972;2023-03-22T12:38:16;6.23;;;1.83;;
2011;SDS011;1009;51.436;6.972;2023-03-22T12:40:55;4.47;;;1.80;;
2011;SDS011;1009;51.436;6.972;2023-03-22T12:43:35;7.53;;;1.60;;
2011;SDS011;1009;51.436;6.972;2023-03-22T12:46:09;3.90;;;1.50;;
2011;SDS011;1009;51.436;6.972;2023-03-22T12:48:46;2.53;;;1.63;;
2011;SDS011;1009;51.436;6.972;2023-03-22T12:51:15;6.70;;;1.57;;
2011;SDS011;1009;51.436;6.972;2023-03-22T12:53:42;4.17;;;1.47;;
2011;SDS011;1009;51.436;6.972;2023-03-22T12:56:14;3.43;;;1.37;;
2011;SDS011;1009;51.436;6.972;2023-03-22T12:58:44;5.23;;;1.73;;
2011;SDS011;1009;51.436;6.972;2023-03-22T13:01:18;6.13;;;2.03;;
2011;SDS011;1009;51.436;6.972;2023-03-22T13:03:48;5.90;;;1.53;;
2011;SDS011;1009;51.436;6.972;2023-03-22T13:06:27;3.90;;;1.53;;
2011;SDS011;1009;51.436;6.972;2023-03-22T13:09:00;4.33;;;1.40;;
2011;SDS011;1009;51.436;6.972;2023-03-22T13:11:41;10.80;;;1.97;;
2011;SDS011;1009;51.436;6.972;2023-03-22T13:14:11;5.23;;;1.67;;
2011;SDS011;1009;51.436;6.972;2023-03-22T13:16:59;5.13;;;1.57;;
2011;SDS011;1009;51.436;6.972;2023-03-22T13:19:31;4.73;;;1.20;;
2011;SDS011;1009;51.436;6.972;2023-03-22T13:22:14;4.73;;;1.40;;
2011;SDS011;1009;51.436;6.972;2023-03-22T13:24:59;5.03;;;1.40;;
2011;SDS011;1009;51.436;6.972;2023-03-22T13:27:36;3.20;;;1.50;;
2011;SDS011;1009;51.436;6.972;2023-03-22T13:30:06;3.50;;;1.63;;
2011;SDS011;1009;51.436;6.972;2023-03-22T13:32:43;5.33;;;1.60;;
2011;SDS011;1009;51.436;6.972;2023-03-22T13:35:20;4.33;;;1.83;;
2011;SDS011;1009;51.436;6.972;2023-03-22T13:37:51;7.83;;;2.83;;
2011;SDS011;1009;51.436;6.972;2023-03-22T13:40:25;5.57;;;1.63;;
2011;SDS011;1009;51.436;6.972;2023-03-22T13:43:08;3.30;;;1.50;;
2011;SDS011;1009;51.436;6.972;2023-03-22T13:45:37;7.83;;;1.60;;
2011;SDS011;1009;51.436;6.972;2023-03-22T13:48:27;5.30;;;2.10;;
2011;SDS011;1009;51.436;6.972;2023-03-22T13:50:56;3.93;;;1.53;;
2011;SDS011;1009;51.436;6.972;2023-03-22T13:53:32;7.57;;;1.70;;
2011;SDS011;1009;51.436;6.972;2023-03-22T13:56:02;4.33;;;1.77;;
2011;SDS011;1009;51.436;6.972;2023-03-22T13:58:32;5.50;;;2.20;;
2011;SDS011;1009;51.436;6.972;2023-03-22T14:01:02;6.63;;;1.73;;
2011;SDS011;1009;51.436;6.972;2023-03-22T14:03:30;7.20;;;1.87;;
2011;SDS011;1009;51.436;6.972;2023-03-22T14:06:06;3.67;;;1.47;;
2011;SDS011;1009;51.436;6.972;2023-03-22T14:08:39;3.63;;;1.60;;
2011;SDS011;1009;51.436;6.972;2023-03-22T14:11:19;3.50;;;1.30;;
2011;SDS011;1009;51.436;6.972;2023-03-22T14:13:50;3.40;;;1.13;;
2011;SDS011;1009;51.436;6.972;2023-03-22T14:16:27;9.13;;;2.17;;
2011;SDS011;1009;51.436;6.972;2023-03-22T14:19:00;4.07;;;1.70;;
2011;SDS011;1009;51.436;6.972;2023-03-22T14:21:30;3.57;;;1.40;;
2011;SDS011;1009;51.436;6.972;2023-03-22T14:23:59;4.93;;;1.70;;
2011;SDS011;1009;51.436;6.972;2023-03-22T14:26:29;4.37;;;1.53;;
2011;SDS011;1009;51.436;6.972;2023-03-22T14:29:04;4.90;;;1.93;;
2011;SDS011;1009;51.436;6.972;2023-03-22T14:31:33;5.30;;;2.20;;
2011;SDS011;1009;51.436;6.972;2023-03-22T14:34:00;4.70;;;1.43;;
2011;SDS011;1009;51.436;6.972;2023-03-22T14:36:31;7.27;;;2.17;;
2011;SDS011;1009;51.436;6.972;2023-03-22T14:39:03;6.33;;;2.03;;
2011;SDS011;1009;51.436;6.972;2023-03-22T14:41:35;3.93;;;1.90;;
2011;SDS011;1009;51.436;6.972;2023-03-22T14:44:02;4.20;;;1.87;;
2011;SDS011;1009;51.436;6.972;2023-03-22T14:46:31;6.63;;;1.87;;
2011;SDS011;1009;51.436;6.972;2023-03-22T14:49:00;9.77;;;2.23;;
2011;SDS011;1009;51.436;6.972;2023-03-22T14:51:30;4.13;;;1.73;;
2011;SDS011;1009;51.436;6.972;2023-03-22T14:54:01;5.90;;;1.60;;
2011;SDS011;1009;51.436;6.972;2023-03-22T14:56:32;4.77;;;2.03;;
2011;SDS011;1009;51.436;6.972;2023-03-22T14:59:04;7.67;;;1.80;;
2011;SDS011;1009;51.436;6.972;2023-03-22T15:01:34;5.43;;;1.67;;
2011;SDS011;1009;51.436;6.972;2023-03-22T15:04:03;5.60;;;2.23;;
2011;SDS011;1009;51.436;6.972;2023-03-22T15:06:33;5.43;;;2.00;;
2011;SDS011;1009;51.436;6.972;2023-03-22T15:09:06;4.43;;;1.60;;
2011;SDS011;1009;51.436;6.972;2023-03-22T15:11:34;8.47;;;2.27;;
2011;SDS011;1009;51.436;6.972;2023-03-22T15:14:05;5.27;;;1.80;;
2011;SDS011;1009;51.436;6.972;2023-03-22T15:16:33;5.10;;;1.67;;
2011;SDS011;1009;51.436;6.972;2023-03-22T15:19:01;5.40;;;2.17;;
2011;SDS011;1009;51.436;6.972;2023-03-22T15:21:30;8.03;;;2.40;;
2011;SDS011;1009;51.436;6.972;2023-03-22T15:24:11;5.97;;;1.90;;
2011;SDS011;1009;51.436;6.972;2023-03-22T15:26:40;7.10;;;2.40;;
2011;SDS011;1009;51.436;6.972;2023-03-22T15:29:08;8.73;;;2.37;;
2011;SDS011;1009;51.436;6.972;2023-03-22T15:31:39;4.50;;;1.83;;
2011;SDS011;1009;51.436;6.972;2023-03-22T15:34:10;6.30;;;2.00;;